Time;durP1;ratioP1;P1;durP2;ratioP2;P2;SDS_P1;SDS_P2;PMS_P1;PMS_P2;Temp;Humidity;BMP_temperature;BMP_pressure;BME280_temperature;BME280_humidity;BME280_pressure;Samples;Min_cycle;Max_cycle;Signal;HPM_P1;HPM_P2
2023/08/09 00:01:26;;;;;;;3.30;2.80;;;;;;;21.55;60.95;101683.46;106340;1263;22546;-51
2023/08/09 00:03:54;;;;;;;3.70;2.30;;;;;;;21.53;60.78;101683.35;106240;1265;25507;-51
2023/08/09 00:06:22;;;;;;;4.10;2.40;;;;;;;21.52;60.90;101679.36;106659;1261;25354;-51
2023/08/09 00:08:49;;;;;;;2.40;2.20;;;;;;;21.50;60.80;101679.31;106701;1260;22937;-51
2023/08/09 00:11:17;;;;;;;2.80;2.50;;;;;;;21.49;60.91;101680.77;106360;1276;22527;-51
2023/08/09 00:13:45;;;;;;;3.70;2.50;;;;;;;21.48;60.85;101680.31;106773;1256;22787;-51
2023/08/09 00:16:13;;;;;;;3.30;2.40;;;;;;;21.47;60.81;101676.11;106694;1276;22523;-51
2023/08/09 00:18:40;;;;;;;4.40;2.20;;;;;;;21.45;60.64;101676.02;106722;1260;25382;-50
2023/08/09 00:21:08;;;;;;;2.50;2.20;;;;;;;21.44;60.68;101675.73;106533;1263;22523;-51
2023/08/09 00:23:36;;;;;;;3.60;2.40;;;;;;;21.42;60.63;101671.93;106754;1256;22532;-51
2023/08/09 00:26:04;;;;;;;5.80;2.40;;;;;;;21.45;60.46;101671.27;106579;1260;22532;-51
2023/08/09 00:28:31;;;;;;;2.50;2.30;;;;;;;21.49;60.19;101673.52;106720;1273;23000;-50
2023/08/09 00:30:59;;;;;;;2.90;2.10;;;;;;;21.49;60.06;101677.04;106365;1272;22529;-51
2023/08/09 00:33:27;;;;;;;2.60;2.20;;;;;;;21.49;59.98;101679.16;106690;1259;22535;-51
2023/08/09 00:35:54;;;;;;;4.60;2.70;;;;;;;21.49;59.96;101681.85;106381;1259;22993;-50
2023/08/09 00:38:23;;;;;;;3.40;2.40;;;;;;;21.48;59.74;101679.08;106661;1272;22526;-50
2023/08/09 00:40:50;;;;;;;3.20;2.20;;;;;;;21.47;59.69;101676.29;106628;1264;22551;-50
2023/08/09 00:43:18;;;;;;;4.00;2.20;;;;;;;21.45;59.72;101675.48;106644;1261;22542;-51
2023/08/09 00:45:46;;;;;;;3.50;2.70;;;;;;;21.44;59.76;101679.08;106695;1260;22525;-51
2023/08/09 00:48:14;;;;;;;3.60;2.40;;;;;;;21.43;59.64;101680.19;106778;1260;25386;-50
2023/08/09 00:50:44;;;;;;;2.70;2.30;;;;;;;21.42;59.44;101675.69;106747;1260;23024;-50
2023/08/09 00:56:36;;;;;;;2.50;1.90;;;;;;;21.41;59.60;101672.71;103723;1305;544910;-50
2023/08/09 00:59:04;;;;;;;2.90;2.10;;;;;;;21.37;59.56;101676.25;105775;1289;22923;-51
2023/08/09 01:01:32;;;;;;;3.30;2.20;;;;;;;21.36;59.59;101675.42;106021;1268;22551;-50
2023/08/09 01:03:59;;;;;;;2.60;2.20;;;;;;;21.35;59.68;101673.59;105989;1282;22548;-51
2023/08/09 01:12:07;;;;;;;2.50;2.10;;;;;;;21.34;59.90;101676.42;103727;1298;545426;-50
2023/08/09 01:14:36;;;;;;;2.60;2.20;;;;;;;21.31;59.99;101676.59;105936;1271;25362;-51
2023/08/09 01:17:03;;;;;;;2.60;2.40;;;;;;;21.31;59.94;101684.02;105826;1284;23017;-51
2023/08/09 01:19:38;;;;;;;5.00;2.60;;;;;;;21.31;60.06;101685.39;105981;1271;22667;-51
2023/08/09 01:22:18;;;;;;;4.30;2.50;;;;;;;21.31;60.16;101685.05;105866;1272;25505;-52
2023/08/09 01:24:45;;;;;;;5.10;2.50;;;;;;;21.31;60.25;101684.89;105786;1285;239509;-53
2023/08/09 01:27:13;;;;;;;1.90;1.80;;;;;;;21.31;60.34;101684.89;105802;1272;22554;-51
2023/08/09 01:29:41;;;;;;;2.10;1.90;;;;;;;21.30;60.27;101682.11;106187;1265;22539;-50
2023/08/09 01:32:11;;;;;;;5.00;2.00;;;;;;;21.30;60.16;101682.66;106024;1273;22552;-51
2023/08/09 01:34:38;;;;;;;3.00;1.70;;;;;;;21.30;59.97;101686.54;106180;1279;24405;-50
2023/08/09 01:37:28;;;;;;;2.10;1.90;;;;;;;21.29;60.08;101683.95;105918;1271;22531;-51
2023/08/09 01:39:57;;;;;;;2.80;1.90;;;;;;;21.28;59.89;101686.63;106080;1279;25253;-50
2023/08/09 01:42:25;;;;;;;2.80;2.30;;;;;;;21.28;59.90;101689.28;106228;1265;25406;-51
2023/08/09 01:44:54;;;;;;;2.30;2.10;;;;;;;21.27;59.91;101690.91;105930;1273;25381;-50
2023/08/09 01:47:21;;;;;;;2.60;1.90;;;;;;;21.27;59.94;101691.09;105918;1267;22547;-51
2023/08/09 01:49:51;;;;;;;2.10;1.80;;;;;;;21.26;60.01;101689.73;105821;1274;22653;-50
2023/08/09 01:52:19;;;;;;;3.20;1.90;;;;;;;21.27;60.00;101686.02;105972;1283;22539;-52
2023/08/09 01:54:47;;;;;;;3.10;1.80;;;;;;;21.26;59.92;101681.27;105752;1271;25381;-50
2023/08/09 01:57:15;;;;;;;4.10;2.30;;;;;;;21.25;59.72;101682.34;105934;1286;24287;-50
2023/08/09 01:59:44;;;;;;;4.50;2.40;;;;;;;21.24;59.61;101684.36;105972;1279;22541;-50
2023/08/09 02:02:11;;;;;;;4.30;2.50;;;;;;;21.23;59.85;101682.30;105985;1285;22536;-50
2023/08/09 02:04:40;;;;;;;8.00;2.70;;;;;;;21.22;59.79;101683.39;106009;1281;23013;-52
2023/08/09 02:07:08;;;;;;;5.50;2.20;;;;;;;21.23;59.61;101685.83;105852;1271;22545;-51
2023/08/09 02:09:36;;;;;;;5.20;2.00;;;;;;;21.22;59.63;101683.76;105702;1281;22530;-50
2023/08/09 02:12:05;;;;;;;2.10;1.90;;;;;;;21.21;59.62;101688.21;106389;1275;22531;-51
2023/08/09 02:14:33;;;;;;;3.70;2.40;;;;;;;21.21;59.47;101690.86;106034;1267;24518;-50
2023/08/09 02:17:02;;;;;;;2.40;2.00;;;;;;;21.20;59.43;101692.00;106342;1278;22634;-51
2023/08/09 02:19:31;;;;;;;5.20;2.20;;;;;;;21.20;59.25;101696.25;106643;1262;22537;-51
2023/08/09 02:21:59;;;;;;;2.10;1.90;;;;;;;21.19;59.33;101696.61;106350;1267;22533;-51
2023/08/09 02:24:28;;;;;;;2.10;1.90;;;;;;;21.18;59.52;101701.95;106509;1260;22533;-50
2023/08/09 02:26:55;;;;;;;3.40;2.30;;;;;;;21.17;59.54;101707.84;106576;1265;22621;-50
2023/08/09 02:29:23;;;;;;;1.90;1.80;;;;;;;21.16;59.50;101708.96;106603;1264;22544;-50
2023/08/09 02:31:51;;;;;;;2.60;2.40;;;;;;;21.14;59.64;101707.83;106592;1272;24783;-50
2023/08/09 02:34:19;;;;;;;3.00;2.10;;;;;;;21.13;59.74;101710.86;106676;1272;22532;-51
2023/08/09 02:36:47;;;;;;;2.50;2.10;;;;;;;21.13;59.90;101709.81;106582;1263;22533;-50
2023/08/09 02:39:15;;;;;;;2.30;2.00;;;;;;;21.12;60.07;101715.68;106565;1265;22714;-51
2023/08/09 02:41:44;;;;;;;8.10;2.70;;;;;;;21.12;60.05;101715.02;106427;1265;25307;-51
2023/08/09 02:44:12;;;;;;;2.80;2.50;;;;;;;21.12;60.28;101718.52;106624;1266;24849;-51
2023/08/09 02:46:40;;;;;;;2.70;1.90;;;;;;;21.12;60.39;101717.83;106635;1275;24325;-50
2023/08/09 02:49:08;;;;;;;2.30;2.10;;;;;;;21.13;60.30;101717.95;106168;1276;22535;-50
2023/08/09 02:51:36;;;;;;;2.90;2.00;;;;;;;21.13;60.31;101718.14;106305;1265;25303;-50
2023/08/09 02:54:05;;;;;;;2.40;2.20;;;;;;;21.12;60.36;101722.56;106267;1259;22546;-51
2023/08/09 02:56:33;;;;;;;2.30;2.10;;;;;;;21.12;60.35;101723.80;106451;1265;24377;-51
2023/08/09 02:59:01;;;;;;;3.10;1.80;;;;;;;21.13;60.22;101722.00;106503;1272;22533;-50
2023/08/09 03:01:29;;;;;;;3.20;2.40;;;;;;;21.14;60.37;101726.73;106576;1262;23874;-50
2023/08/09 03:03:58;;;;;;;4.30;2.10;;;;;;;21.14;60.39;101724.23;106601;1262;23133;-50
2023/08/09 03:06:26;;;;;;;3.00;2.50;;;;;;;21.15;60.49;101723.84;106621;1262;24373;-49
2023/08/09 03:08:54;;;;;;;2.50;1.80;;;;;;;21.15;60.49;101724.00;106610;1277;22649;-51
2023/08/09 03:11:23;;;;;;;3.90;1.90;;;;;;;21.16;60.51;101727.84;106740;1273;22530;-50
2023/08/09 03:13:52;;;;;;;3.10;2.50;;;;;;;21.18;60.52;101729.88;106645;1262;22528;-50
2023/08/09 03:16:20;;;;;;;3.20;2.40;;;;;;;21.18;60.54;101731.64;106633;1272;22531;-50
2023/08/09 03:18:48;;;;;;;3.40;2.20;;;;;;;21.16;60.52;101729.41;106572;1262;22516;-50
2023/08/09 03:21:17;;;;;;;3.00;2.40;;;;;;;21.15;60.72;101728.77;106575;1278;23890;-52
2023/08/09 03:23:46;;;;;;;4.40;2.30;;;;;;;21.16;60.90;101732.25;106934;1258;22774;-50
2023/08/09 03:26:13;;;;;;;2.90;2.00;;;;;;;21.17;60.97;101735.56;106702;1261;25251;-51
2023/08/09 03:28:42;;;;;;;2.60;1.90;;;;;;;21.16;61.07;101735.10;106923;1259;22531;-50
2023/08/09 03:31:12;;;;;;;3.40;2.30;;;;;;;21.12;61.33;101740.06;107042;1258;24265;-51
2023/08/09 03:33:40;;;;;;;2.50;2.10;;;;;;;21.07;61.70;101741.67;107020;1270;23134;-50
2023/08/09 03:36:09;;;;;;;5.50;2.00;;;;;;;21.02;62.11;101739.99;106809;1258;25331;-50
2023/08/09 03:38:36;;;;;;;2.20;2.00;;;;;;;20.97;62.64;101740.01;106932;1268;22637;-51
2023/08/09 03:41:04;;;;;;;7.00;1.90;;;;;;;20.94;63.29;101738.39;106843;1259;22526;-51
2023/08/09 03:43:32;;;;;;;4.10;2.00;;;;;;;20.94;63.93;101737.17;106762;1259;24200;-50
2023/08/09 03:46:00;;;;;;;4.00;2.00;;;;;;;20.96;64.13;101738.49;106958;1269;22527;-51
2023/08/09 03:48:28;;;;;;;3.70;2.20;;;;;;;20.97;64.46;101736.52;106816;1260;23867;-51
2023/08/09 03:50:57;;;;;;;2.60;2.40;;;;;;;20.99;64.58;101737.96;106911;1268;22531;-50
2023/08/09 03:53:25;;;;;;;2.70;2.40;;;;;;;21.04;64.86;101740.75;106927;1259;24279;-52
2023/08/09 03:55:53;;;;;;;2.50;2.30;;;;;;;21.08;65.03;101743.23;106964;1256;24377;-50
2023/08/09 03:58:20;;;;;;;4.00;2.60;;;;;;;21.14;65.18;101742.59;106973;1256;22533;-51
2023/08/09 04:00:48;;;;;;;2.90;2.70;;;;;;;21.16;65.36;101751.67;106857;1266;25236;-51
2023/08/09 04:03:17;;;;;;;3.60;2.50;;;;;;;21.17;65.67;101756.02;106930;1270;22536;-51
2023/08/09 04:05:45;;;;;;;3.70;2.70;;;;;;;21.19;65.77;101761.42;106910;1261;23891;-50
2023/08/09 04:08:12;;;;;;;2.80;2.50;;;;;;;21.21;66.01;101762.16;106817;1261;25342;-50
2023/08/09 04:10:40;;;;;;;2.40;2.20;;;;;;;21.24;65.97;101762.92;106856;1268;22552;-50
2023/08/09 04:13:08;;;;;;;3.40;2.70;;;;;;;21.23;66.20;101770.55;106953;1258;22526;-50
2023/08/09 04:15:36;;;;;;;3.40;2.80;;;;;;;21.24;66.21;101773.16;106956;1262;22530;-50
2023/08/09 04:18:04;;;;;;;3.00;2.10;;;;;;;21.26;66.26;101773.05;106821;1268;22523;-51
2023/08/09 04:20:31;;;;;;;2.60;2.40;;;;;;;21.27;66.29;101772.27;106863;1270;22534;-52
2023/08/09 04:23:03;;;;;;;4.30;2.80;;;;;;;21.29;66.19;101773.61;106896;1273;22534;-51
2023/08/09 04:25:31;;;;;;;2.50;2.20;;;;;;;21.31;66.25;101774.92;107015;1259;22568;-52
2023/08/09 04:27:59;;;;;;;3.00;2.60;;;;;;;21.32;66.30;101770.09;106441;1275;22548;-50
2023/08/09 04:30:27;;;;;;;2.80;2.50;;;;;;;21.34;66.11;101772.66;106480;1273;24330;-51
2023/08/09 04:32:55;;;;;;;3.40;2.60;;;;;;;21.34;65.84;101779.34;106695;1256;22597;-51
2023/08/09 04:35:23;;;;;;;3.10;2.60;;;;;;;21.34;65.42;101780.39;106670;1267;22522;-50
2023/08/09 04:37:51;;;;;;;3.00;2.40;;;;;;;21.35;64.78;101780.20;106658;1257;22628;-51
2023/08/09 04:40:19;;;;;;;3.30;2.50;;;;;;;21.36;64.50;101782.23;106732;1259;22531;-51
2023/08/09 04:42:47;;;;;;;4.00;2.50;;;;;;;21.39;64.52;101792.34;106719;1269;25362;-51
2023/08/09 04:45:15;;;;;;;4.90;2.70;;;;;;;21.43;64.55;101793.36;106834;1256;25502;-50
2023/08/09 04:47:43;;;;;;;4.00;2.40;;;;;;;21.47;64.61;101801.83;106619;1275;23859;-50
2023/08/09 04:50:12;;;;;;;3.10;2.40;;;;;;;21.51;64.70;101809.38;106913;1258;22530;-50
2023/08/09 04:52:41;;;;;;;2.70;2.50;;;;;;;21.55;64.69;101815.00;106892;1269;22526;-51
2023/08/09 04:55:11;;;;;;;3.30;2.60;;;;;;;21.60;64.44;101819.67;106902;1270;22540;-51
2023/08/09 04:57:38;;;;;;;4.00;2.80;;;;;;;21.62;64.13;101824.68;106879;1257;25646;-50
2023/08/09 05:00:10;;;;;;;2.80;2.50;;;;;;;21.59;63.79;101824.29;107025;1269;22536;-50
2023/08/09 05:02:37;;;;;;;;;;;;;;;21.57;63.71;101821.56;106525;1269;22509;-50
2023/08/09 05:05:09;;;;;;;3.40;2.50;;;;;;;21.59;63.50;101823.25;106883;1269;22526;-51
2023/08/09 05:07:37;;;;;;;2.80;2.50;;;;;;;21.60;63.23;101831.13;106947;1268;22527;-53
2023/08/09 05:10:06;;;;;;;2.90;2.50;;;;;;;21.62;62.93;101830.16;106968;1268;22526;-50
2023/08/09 05:12:34;;;;;;;3.60;2.60;;;;;;;21.64;62.66;101839.23;106903;1274;22519;-51
2023/08/09 05:15:03;;;;;;;3.00;2.60;;;;;;;21.66;62.67;101843.73;106932;1269;22518;-51
2023/08/09 05:17:31;;;;;;;2.70;2.50;;;;;;;21.70;62.54;101846.37;106893;1269;22527;-50
2023/08/09 05:19:59;;;;;;;3.60;2.70;;;;;;;21.73;62.43;101842.65;106937;1268;22530;-50
2023/08/09 05:22:27;;;;;;;3.00;2.70;;;;;;;21.76;62.06;101843.71;106864;1259;22528;-51
2023/08/09 05:24:55;;;;;;;2.90;2.60;;;;;;;21.78;61.99;101846.12;106902;1265;22538;-50
2023/08/09 05:27:22;;;;;;;2.80;2.40;;;;;;;21.81;61.95;101848.75;106977;1263;25277;-51
2023/08/09 05:29:50;;;;;;;5.10;2.50;;;;;;;21.85;61.59;101852.11;106817;1259;24248;-51
2023/08/09 05:32:18;;;;;;;3.60;2.80;;;;;;;21.89;61.32;101851.21;106901;1269;22545;-51
2023/08/09 05:34:45;;;;;;;3.00;2.60;;;;;;;21.94;61.11;101851.17;106912;1263;25260;-50
2023/08/09 05:37:14;;;;;;;2.80;2.30;;;;;;;21.99;60.82;101848.95;106952;1259;24240;-50
2023/08/09 05:39:41;;;;;;;3.90;2.60;;;;;;;22.12;60.46;101848.79;106902;1266;24365;-50
2023/08/09 05:42:12;;;;;;;2.80;2.40;;;;;;;22.33;59.84;101849.42;106772;1260;22481;-49
2023/08/09 05:44:40;;;;;;;2.80;2.60;;;;;;;22.58;58.92;101848.05;106965;1256;24145;-50
2023/08/09 05:47:07;;;;;;;2.50;2.30;;;;;;;22.86;58.14;101844.26;106928;1258;23295;-51
2023/08/09 05:49:39;;;;;;;2.70;2.20;;;;;;;23.14;57.39;101847.60;105999;1269;1015299;-51
2023/08/09 05:52:06;;;;;;;3.70;2.40;;;;;;;23.41;56.54;101846.56;106717;1275;24281;-51
2023/08/09 05:54:34;;;;;;;3.00;2.70;;;;;;;23.58;55.89;101849.52;106774;1260;22994;-51
2023/08/09 05:57:03;;;;;;;2.60;2.40;;;;;;;23.72;55.28;101850.77;106958;1270;22509;-51
2023/08/09 05:59:31;;;;;;;3.00;2.70;;;;;;;23.82;54.56;101852.64;106937;1257;25242;-50
2023/08/09 06:01:59;;;;;;;2.90;2.50;;;;;;;23.98;54.50;101852.21;107025;1271;24208;-51
2023/08/09 06:04:26;;;;;;;4.00;2.70;;;;;;;24.17;54.08;101854.61;106903;1256;25370;-50
2023/08/09 06:06:54;;;;;;;3.70;2.50;;;;;;;24.38;53.44;101853.85;106721;1264;22527;-51
2023/08/09 06:09:22;;;;;;;3.70;2.60;;;;;;;24.54;52.62;101856.21;106727;1261;22533;-52
2023/08/09 06:12:07;;;;;;;4.00;2.70;;;;;;;24.64;52.36;101852.04;106708;1257;26585;-51
2023/08/09 06:14:35;;;;;;;3.10;2.80;;;;;;;24.67;51.77;101853.11;106740;1255;22530;-51
2023/08/09 06:17:03;;;;;;;3.10;2.80;;;;;;;24.68;51.95;101850.55;106224;1269;22604;-51
2023/08/09 06:19:33;;;;;;;3.10;2.60;;;;;;;24.66;52.05;101847.64;106489;1274;22528;-51
2023/08/09 06:22:00;;;;;;;4.10;2.90;;;;;;;24.63;52.11;101849.77;106619;1273;22523;-50
2023/08/09 06:27:54;;;;;;;4.50;3.30;;;;;;;24.60;52.03;101844.29;103664;1299;546152;-50
2023/08/09 06:30:22;;;;;;;3.20;2.90;;;;;;;24.54;52.24;101848.41;105933;1272;22567;-50
2023/08/09 06:32:50;;;;;;;3.40;2.90;;;;;;;24.53;52.47;101850.27;105891;1275;22556;-50
2023/08/09 06:35:18;;;;;;;3.80;3.20;;;;;;;24.53;52.65;101850.27;105888;1272;25300;-51
2023/08/09 06:37:46;;;;;;;3.60;3.10;;;;;;;24.53;52.66;101853.09;105931;1285;22542;-51
2023/08/09 06:40:20;;;;;;;4.80;2.60;;;;;;;24.53;52.77;101856.80;105778;1282;22743;-51
2023/08/09 06:42:48;;;;;;;4.30;2.90;;;;;;;24.54;52.93;101857.12;105959;1285;25317;-51
2023/08/09 06:45:17;;;;;;;3.40;2.90;;;;;;;24.55;53.07;101858.27;105965;1272;22528;-51
2023/08/09 06:47:44;;;;;;;5.20;3.40;;;;;;;24.58;53.32;101860.05;106269;1277;25233;-50
2023/08/09 06:50:12;;;;;;;4.10;3.40;;;;;;;24.56;52.89;101863.53;106201;1282;25249;-51
2023/08/09 06:52:40;;;;;;;5.60;4.50;;;;;;;24.53;53.39;101860.56;106209;1269;22532;-51
2023/08/09 06:55:09;;;;;;;3.90;3.50;;;;;;;24.51;53.66;101861.36;106180;1266;22536;-50
2023/08/09 06:57:36;;;;;;;4.40;4.00;;;;;;;24.51;53.30;101858.52;105991;1270;22522;-50
2023/08/09 07:00:05;;;;;;;3.70;3.40;;;;;;;24.48;53.22;101860.31;106342;1276;22539;-50
2023/08/09 07:02:33;;;;;;;3.40;3.10;;;;;;;24.44;53.29;101861.80;105736;1280;22536;-50
2023/08/09 07:05:08;;;;;;;3.20;2.90;;;;;;;24.44;53.91;101863.10;106096;1280;25382;-51
2023/08/09 07:07:36;;;;;;;3.30;3.00;;;;;;;24.43;53.81;101863.34;106197;1279;24505;-49
2023/08/09 07:13:28;;;;;;;4.80;3.40;;;;;;;24.53;54.08;101864.11;103740;1307;544610;-50
2023/08/09 07:15:56;;;;;;;4.40;3.20;;;;;;;24.63;53.76;101865.05;105820;1274;24248;-51
2023/08/09 07:18:25;;;;;;;4.30;2.90;;;;;;;24.79;53.57;101862.09;105730;1273;25304;-50
2023/08/09 07:20:52;;;;;;;3.30;3.00;;;;;;;25.01;53.43;101864.59;105970;1281;25383;-51
2023/08/09 07:23:20;;;;;;;2.90;2.70;;;;;;;25.26;52.91;101860.59;105909;1277;22578;-51
2023/08/09 07:26:08;;;;;;;3.70;3.20;;;;;;;25.59;52.27;101863.41;105728;1280;245798;-51
2023/08/09 07:28:36;;;;;;;3.10;2.80;;;;;;;25.85;52.22;101868.02;106113;1280;22534;-50
2023/08/09 07:31:20;;;;;;;4.60;2.90;;;;;;;26.10;51.74;101871.71;106338;1280;22565;-50
2023/08/09 07:33:48;;;;;;;4.20;3.10;;;;;;;26.22;51.14;101868.70;106306;1282;22557;-52
2023/08/09 07:36:17;;;;;;;4.50;3.00;;;;;;;26.26;51.24;101871.83;106291;1280;22532;-50
2023/08/09 07:38:47;;;;;;;5.10;3.40;;;;;;;26.24;51.18;101872.10;105732;1280;22544;-51
2023/08/09 07:41:15;;;;;;;3.50;2.80;;;;;;;26.20;51.25;101873.30;105883;1283;22539;-51
2023/08/09 07:43:42;;;;;;;3.50;3.20;;;;;;;26.14;51.32;101870.72;105541;1282;22553;-52
2023/08/09 07:46:10;;;;;;;5.00;3.00;;;;;;;26.04;51.44;101866.58;105842;1285;23273;-50
2023/08/09 07:48:38;;;;;;;3.00;2.70;;;;;;;25.93;51.75;101864.88;105788;1280;23014;-51
2023/08/09 07:51:11;;;;;;;4.50;3.30;;;;;;;25.81;52.00;101864.20;105765;1270;22539;-50
2023/08/09 07:53:40;;;;;;;3.60;2.80;;;;;;;25.73;52.34;101865.14;105661;1278;22547;-50
2023/08/09 07:56:11;;;;;;;3.30;3.00;;;;;;;25.67;52.48;101870.14;105946;1278;22545;-50
2023/08/09 07:58:39;;;;;;;3.20;2.90;;;;;;;25.62;52.60;101868.02;106274;1276;22533;-50
2023/08/09 08:01:08;;;;;;;7.50;3.50;;;;;;;25.57;52.90;101866.39;106240;1265;22602;-50
2023/08/09 08:03:36;;;;;;;4.60;2.80;;;;;;;25.53;53.13;101869.83;106327;1276;22523;-51
2023/08/09 08:06:04;;;;;;;2.80;2.50;;;;;;;25.53;53.19;101867.55;106302;1260;22552;-51
2023/08/09 08:08:31;;;;;;;2.80;2.60;;;;;;;25.54;53.06;101865.70;106700;1270;22538;-51
2023/08/09 08:10:59;;;;;;;4.50;2.40;;;;;;;25.56;52.72;101863.23;106777;1260;23909;-51
2023/08/09 08:13:27;;;;;;;3.30;2.70;;;;;;;25.57;52.83;101860.67;106787;1272;25301;-51
2023/08/09 08:15:55;;;;;;;8.10;2.90;;;;;;;25.58;52.52;101865.23;106832;1270;25484;-51
2023/08/09 08:18:22;;;;;;;4.00;2.40;;;;;;;25.58;52.53;101865.64;106905;1261;22538;-51
2023/08/09 08:20:50;;;;;;;4.30;2.40;;;;;;;25.59;52.45;101866.25;106841;1258;22537;-51
2023/08/09 08:23:18;;;;;;;4.00;2.60;;;;;;;25.62;52.60;101867.29;106804;1259;22530;-51
2023/08/09 08:25:46;;;;;;;4.30;2.70;;;;;;;25.65;52.29;101866.55;106940;1267;24439;-49
2023/08/09 08:28:14;;;;;;;2.60;2.30;;;;;;;25.69;51.92;101867.73;106922;1273;23004;-50
2023/08/09 08:30:42;;;;;;;5.80;2.50;;;;;;;25.73;51.47;101868.88;106821;1258;25338;-51
2023/08/09 08:33:09;;;;;;;2.50;2.30;;;;;;;25.75;51.27;101863.92;106806;1254;22526;-51
2023/08/09 08:35:43;;;;;;;2.90;2.40;;;;;;;25.78;51.54;101862.44;106866;1264;25301;-50
2023/08/09 08:38:11;;;;;;;2.40;2.20;;;;;;;25.84;51.60;101864.55;106771;1254;22525;-50
2023/08/09 08:40:38;;;;;;;2.50;2.30;;;;;;;25.88;51.09;101866.27;106746;1273;22525;-52
2023/08/09 08:43:08;;;;;;;2.50;2.10;;;;;;;25.90;51.02;101867.20;106805;1273;22522;-50
2023/08/09 08:45:38;;;;;;;2.50;2.30;;;;;;;25.93;50.75;101868.55;106804;1260;25253;-50
2023/08/09 08:48:07;;;;;;;2.30;2.00;;;;;;;25.99;50.78;101869.55;106856;1268;22527;-50
2023/08/09 08:50:38;;;;;;;3.30;2.30;;;;;;;26.06;50.46;101869.81;106737;1259;24269;-51
2023/08/09 08:53:06;;;;;;;2.20;2.00;;;;;;;26.12;50.38;101866.23;106621;1274;22604;-50
2023/08/09 08:55:34;;;;;;;2.30;2.10;;;;;;;26.17;50.06;101860.34;106773;1260;22545;-50
2023/08/09 08:58:03;;;;;;;2.50;2.30;;;;;;;26.20;49.89;101857.47;106647;1257;24367;-50
2023/08/09 09:00:31;;;;;;;2.60;2.20;;;;;;;26.24;49.69;101853.30;106786;1260;24288;-50
2023/08/09 09:02:58;;;;;;;2.30;2.00;;;;;;;26.26;49.41;101852.96;106892;1257;25362;-51
2023/08/09 09:05:26;;;;;;;3.30;2.40;;;;;;;26.27;49.28;101851.30;106790;1262;22530;-50
2023/08/09 09:07:56;;;;;;;2.50;2.30;;;;;;;26.30;49.29;101849.11;106923;1257;22792;-51
2023/08/09 09:10:25;;;;;;;2.50;2.30;;;;;;;26.32;49.02;101845.91;106859;1254;22530;-51
2023/08/09 09:12:53;;;;;;;3.90;2.10;;;;;;;26.35;48.94;101848.92;106780;1256;23862;-51
2023/08/09 09:15:22;;;;;;;3.30;2.10;;;;;;;26.37;48.63;101845.05;106857;1257;22539;-51
2023/08/09 09:17:51;;;;;;;2.30;2.10;;;;;;;26.39;48.45;101845.98;106845;1273;22530;-50
2023/08/09 09:20:29;;;;;;;4.90;2.30;;;;;;;26.41;48.47;101843.53;106920;1257;22534;-50
2023/08/09 09:22:59;;;;;;;2.60;2.20;;;;;;;26.46;49.10;101846.34;106759;1268;24221;-51
2023/08/09 09:25:27;;;;;;;2.40;2.10;;;;;;;26.52;48.80;101843.41;106618;1254;24388;-51
2023/08/09 09:27:56;;;;;;;2.30;2.20;;;;;;;26.57;48.60;101841.95;106561;1256;25359;-51
2023/08/09 09:30:24;;;;;;;2.10;1.90;;;;;;;26.62;48.23;101841.81;106703;1255;24240;-51
2023/08/09 09:33:03;;;;;;;2.30;2.00;;;;;;;26.66;48.27;101839.73;106792;1254;22537;-51
2023/08/09 09:35:32;;;;;;;2.30;2.10;;;;;;;26.71;48.29;101839.77;106875;1270;22558;-51
2023/08/09 09:38:01;;;;;;;1.90;1.80;;;;;;;26.77;48.23;101834.88;106824;1256;22533;-50
2023/08/09 09:40:31;;;;;;;2.00;1.80;;;;;;;26.82;47.99;101827.70;106881;1255;25250;-51
2023/08/09 09:43:04;;;;;;;1.80;1.70;;;;;;;26.86;47.88;101826.17;106755;1256;22530;-51
2023/08/09 09:45:32;;;;;;;2.30;2.00;;;;;;;26.91;48.08;101826.35;106975;1264;22554;-50
2023/08/09 09:48:01;;;;;;;3.40;2.10;;;;;;;26.97;47.92;101826.44;106823;1269;22529;-50
2023/08/09 09:50:31;;;;;;;2.40;2.20;;;;;;;27.04;47.93;101821.82;106913;1258;22533;-51
2023/08/09 09:52:59;;;;;;;2.80;2.30;;;;;;;27.12;48.69;101820.16;106847;1254;25389;-50
2023/08/09 09:55:28;;;;;;;2.20;2.00;;;;;;;27.19;47.78;101818.58;106825;1269;25366;-50
2023/08/09 09:57:57;;;;;;;2.50;2.30;;;;;;;27.25;48.22;101816.84;106800;1274;22542;-50
2023/08/09 10:00:27;;;;;;;2.40;2.20;;;;;;;27.31;48.97;101813.02;106861;1254;25604;-50
2023/08/09 10:02:55;;;;;;;3.90;2.60;;;;;;;27.36;48.94;101813.73;106995;1256;24211;-51
2023/08/09 10:05:29;;;;;;;2.20;2.00;;;;;;;27.40;48.22;101810.94;106878;1269;22526;-51
2023/08/09 10:07:57;;;;;;;3.50;2.20;;;;;;;27.44;48.36;101813.82;106839;1269;24215;-51
2023/08/09 10:10:26;;;;;;;3.60;2.30;;;;;;;27.51;48.70;101817.11;106849;1270;22543;-51
2023/08/09 10:12:54;;;;;;;3.30;2.50;;;;;;;27.59;48.56;101816.99;106846;1260;22570;-51
2023/08/09 10:15:24;;;;;;;2.80;2.50;;;;;;;27.66;48.50;101812.02;106789;1257;22527;-51
2023/08/09 10:17:54;;;;;;;3.20;2.90;;;;;;;27.72;47.93;101812.59;106846;1272;24281;-51
2023/08/09 10:20:21;;;;;;;4.40;2.80;;;;;;;27.75;47.50;101810.96;106786;1269;22530;-51
2023/08/09 10:22:49;;;;;;;2.80;2.60;;;;;;;27.76;47.62;101813.86;106754;1260;24364;-51
2023/08/09 10:25:17;;;;;;;3.50;2.90;;;;;;;27.78;47.64;101814.60;106833;1272;24288;-50
2023/08/09 10:27:53;;;;;;;2.90;2.60;;;;;;;27.81;47.20;101809.78;106925;1261;22526;-51
2023/08/09 10:30:25;;;;;;;3.20;2.50;;;;;;;27.84;47.21;101805.80;106839;1257;25328;-50
2023/08/09 10:32:55;;;;;;;3.30;2.90;;;;;;;27.86;46.19;101806.50;106786;1254;22538;-51
2023/08/09 10:35:52;;;;;;;4.40;2.50;;;;;;;27.89;45.55;101803.25;106764;1255;25392;-51
2023/08/09 10:38:32;;;;;;;2.70;2.40;;;;;;;27.92;44.77;101804.05;106854;1268;22530;-51
2023/08/09 10:41:14;;;;;;;3.00;2.10;;;;;;;27.94;44.24;101804.80;106764;1268;22543;-50
2023/08/09 10:43:42;;;;;;;2.30;2.10;;;;;;;27.96;43.75;101798.75;106788;1256;22960;-51
2023/08/09 10:46:25;;;;;;;2.50;2.30;;;;;;;28.00;43.05;101802.72;106810;1256;22790;-50
2023/08/09 10:48:54;;;;;;;2.50;2.30;;;;;;;28.02;42.88;101796.50;106836;1257;25453;-51
2023/08/09 10:51:23;;;;;;;3.70;2.40;;;;;;;28.03;43.17;101792.87;106827;1269;22533;-52
2023/08/09 10:53:51;;;;;;;2.10;2.00;;;;;;;28.05;43.64;101796.06;106869;1255;23861;-50
2023/08/09 10:56:39;;;;;;;2.50;2.20;;;;;;;28.07;43.09;101796.46;106781;1261;22611;-51
2023/08/09 10:59:14;;;;;;;3.70;2.40;;;;;;;28.07;42.84;101794.48;106589;1261;22523;-51
2023/08/09 11:01:42;;;;;;;2.40;2.20;;;;;;;28.08;42.92;101790.38;106470;1256;22600;-52
2023/08/09 11:04:12;;;;;;;5.40;2.10;;;;;;;28.08;42.77;101783.95;106544;1276;22530;-51
2023/08/09 11:06:42;;;;;;;2.40;2.00;;;;;;;28.07;43.16;101784.02;106612;1257;22550;-51
2023/08/09 11:09:11;;;;;;;3.10;2.50;;;;;;;28.06;43.13;101783.55;106609;1270;23631;-50
2023/08/09 11:11:40;;;;;;;3.20;2.90;;;;;;;28.02;43.75;101782.21;106682;1268;22619;-51
2023/08/09 11:14:08;;;;;;;2.70;2.50;;;;;;;28.01;43.90;101784.65;106767;1253;25376;-51
2023/08/09 11:16:36;;;;;;;2.40;2.20;;;;;;;28.01;43.92;101783.75;106648;1256;25412;-51
2023/08/09 11:19:14;;;;;;;2.20;2.00;;;;;;;28.01;43.84;101782.33;106678;1255;22555;-50
2023/08/09 11:22:01;;;;;;;2.30;2.00;;;;;;;28.02;43.56;101780.11;106652;1268;22535;-51
2023/08/09 11:24:29;;;;;;;2.50;2.30;;;;;;;28.03;43.98;101785.73;106718;1268;22529;-51
2023/08/09 11:26:58;;;;;;;2.90;2.00;;;;;;;28.06;44.33;101786.18;106608;1273;22539;-51
2023/08/09 11:29:27;;;;;;;2.50;2.30;;;;;;;28.09;43.46;101789.02;106916;1253;25300;-50
2023/08/09 11:31:57;;;;;;;2.60;2.30;;;;;;;28.10;43.71;101788.35;106872;1254;25236;-49
2023/08/09 11:34:25;;;;;;;3.80;2.40;;;;;;;28.12;44.19;101783.05;106890;1253;22526;-50
2023/08/09 11:36:54;;;;;;;6.00;2.70;;;;;;;28.14;44.58;101782.70;106771;1269;22534;-51
2023/08/09 11:39:23;;;;;;;2.50;2.10;;;;;;;28.17;44.63;101778.70;106785;1257;24243;-50
2023/08/09 11:41:53;;;;;;;2.80;2.50;;;;;;;28.20;44.77;101781.54;106854;1254;22554;-50